createdAt,value
2022-10-04T00:01:11.208Z,1
2022-10-04T00:03:04.213Z,1
2022-10-04T00:05:04.600Z,1
2022-10-04T00:07:04.021Z,1
2022-10-04T00:09:11.124Z,1
2022-10-04T00:11:04.378Z,1
2022-10-04T00:13:05.008Z,1
2022-10-04T00:15:08.248Z,1
2022-10-04T00:17:04.468Z,1
2022-10-04T00:19:04.892Z,1
2022-10-04T00:21:04.791Z,1
2022-10-04T00:23:07.827Z,1
2022-10-04T00:25:04.701Z,1
2022-10-04T00:27:11.221Z,1
2022-10-04T00:29:04.764Z,1
2022-10-04T00:31:11.302Z,1
2022-10-04T00:33:04.476Z,1
2022-10-04T00:35:04.599Z,1
2022-10-04T00:37:07.933Z,1
2022-10-04T00:39:04.031Z,1
2022-10-04T00:41:04.000Z,1
2022-10-04T00:43:04.747Z,1
2022-10-04T00:45:04.547Z,1
2022-10-04T00:47:07.990Z,1
2022-10-04T00:49:03.915Z,1
2022-10-04T00:51:04.425Z,1
2022-10-04T00:53:04.582Z,1
2022-10-04T00:55:04.326Z,1
2022-10-04T00:57:04.674Z,1
2022-10-04T00:59:11.211Z,1
2022-10-04T01:01:04.430Z,1
2022-10-04T01:03:08.048Z,1
2022-10-04T01:05:04.020Z,1
2022-10-04T01:07:04.776Z,1
2022-10-04T01:09:04.959Z,1
2022-10-04T01:11:03.989Z,1
2022-10-04T01:13:08.094Z,1
2022-10-04T01:15:04.939Z,1
2022-10-04T01:17:04.748Z,1
2022-10-04T01:19:05.655Z,1
2022-10-04T01:21:04.427Z,1
2022-10-04T01:23:05.779Z,1
2022-10-04T01:25:03.987Z,1
2022-10-04T01:27:04.517Z,1
2022-10-04T01:29:03.977Z,1
2022-10-04T01:31:04.974Z,1
2022-10-04T01:33:04.621Z,1
2022-10-04T01:35:04.100Z,1
2022-10-04T01:37:03.951Z,1
2022-10-04T01:39:04.722Z,1
2022-10-04T01:41:04.013Z,1
2022-10-04T01:43:04.265Z,1
2022-10-04T01:45:04.621Z,1
2022-10-04T01:47:03.922Z,1
2022-10-04T01:49:06.351Z,1
2022-10-04T01:51:03.893Z,1
2022-10-04T01:53:04.842Z,1
2022-10-04T01:55:04.672Z,1
2022-10-04T01:57:04.470Z,1
2022-10-04T01:59:04.298Z,1
2022-10-04T02:01:08.162Z,1
2022-10-04T02:03:04.933Z,1
2022-10-04T02:05:04.040Z,1
2022-10-04T02:07:04.844Z,1
2022-10-04T02:09:08.010Z,1
2022-10-04T02:11:04.528Z,1
2022-10-04T02:13:04.027Z,1
2022-10-04T02:15:04.962Z,1
2022-10-04T02:17:03.924Z,1
2022-10-04T02:19:07.579Z,1
2022-10-04T02:21:04.061Z,1
2022-10-04T02:23:05.397Z,1
2022-10-04T02:25:04.743Z,1
2022-10-04T02:27:07.780Z,1
2022-10-04T02:29:03.900Z,1
2022-10-04T02:31:04.094Z,1
2022-10-04T02:33:04.070Z,1
2022-10-04T02:35:03.998Z,1
2022-10-04T02:37:04.707Z,1
2022-10-04T02:39:04.506Z,1
2022-10-04T02:41:04.541Z,1
2022-10-04T02:43:04.519Z,1
2022-10-04T02:45:03.954Z,1
2022-10-04T02:47:04.646Z,1
2022-10-04T02:49:04.642Z,1
2022-10-04T02:51:04.757Z,1
2022-10-04T02:53:04.615Z,1
2022-10-04T02:55:08.011Z,1
2022-10-04T02:57:03.966Z,1
2022-10-04T02:59:04.441Z,1
2022-10-04T03:01:03.979Z,1
2022-10-04T03:03:04.524Z,1
2022-10-04T03:05:04.834Z,1
2022-10-04T03:07:04.317Z,1
2022-10-04T03:09:04.969Z,1
2022-10-04T03:11:04.834Z,1
2022-10-04T03:13:04.110Z,1
2022-10-04T03:15:04.599Z,1
2022-10-04T03:17:08.055Z,1
2022-10-04T03:19:04.792Z,1
2022-10-04T03:21:07.626Z,1
2022-10-04T03:23:04.574Z,1
2022-10-04T03:25:04.561Z,1
2022-10-04T03:27:08.092Z,1
2022-10-04T03:29:04.751Z,1
2022-10-04T03:31:05.164Z,1
2022-10-04T03:33:03.927Z,1
2022-10-04T03:35:04.780Z,1
2022-10-04T03:37:04.128Z,1
2022-10-04T03:39:08.093Z,1
2022-10-04T03:41:04.321Z,1
2022-10-04T03:43:04.698Z,1
2022-10-04T03:45:04.507Z,1
2022-10-04T03:47:04.700Z,1
2022-10-04T03:49:08.223Z,1
2022-10-04T03:51:04.460Z,1
2022-10-04T03:53:03.956Z,1
2022-10-04T03:55:08.135Z,1
2022-10-04T03:59:04.784Z,1
2022-10-04T04:01:10.155Z,1
2022-10-04T04:03:07.713Z,1
2022-10-04T04:05:04.181Z,1
2022-10-04T04:07:04.230Z,1
2022-10-04T04:09:04.374Z,1
2022-10-04T04:11:04.521Z,1
2022-10-04T04:13:04.981Z,1
2022-10-04T04:15:08.108Z,1
2022-10-04T04:17:04.080Z,1
2022-10-04T04:19:04.171Z,1
2022-10-04T04:21:04.008Z,1
2022-10-04T04:23:10.880Z,1
2022-10-04T04:25:08.318Z,1
2022-10-04T04:29:04.542Z,0
2022-10-04T04:31:08.083Z,0
2022-10-04T04:33:04.033Z,0
2022-10-04T04:35:04.767Z,0
2022-10-04T04:37:11.378Z,0.1
2022-10-04T04:39:04.198Z,0.1
2022-10-04T04:41:03.952Z,0.2
2022-10-04T04:43:11.639Z,0.3
2022-10-04T04:45:04.845Z,0.4
2022-10-04T04:47:04.014Z,0.7
2022-10-04T04:49:04.047Z,1
2022-10-04T04:51:04.592Z,1.6
2022-10-04T04:53:04.190Z,2.2
2022-10-04T04:55:05.041Z,3.3
2022-10-04T04:57:08.422Z,5
2022-10-04T04:59:04.861Z,7
2022-10-04T05:01:12.019Z,11
2022-10-04T05:03:08.658Z,14.9
2022-10-04T05:05:08.026Z,21.1
2022-10-04T05:07:08.583Z,30
2022-10-04T05:09:04.192Z,38.5
2022-10-04T05:11:04.244Z,51.9
2022-10-04T05:13:04.635Z,77.5
2022-10-04T05:15:04.544Z,104.6
2022-10-04T05:17:04.718Z,127.7
2022-10-04T05:19:04.090Z,148.4
2022-10-04T05:21:04.119Z,172.4
2022-10-04T05:23:04.583Z,190.6
2022-10-04T05:25:04.623Z,210.6
2022-10-04T05:27:04.712Z,244.7
2022-10-04T05:29:03.943Z,270.4
2022-10-04T05:31:04.847Z,298.9
2022-10-04T05:33:04.721Z,330.3
2022-10-04T05:35:04.509Z,365
2022-10-04T05:37:08.034Z,383.8
2022-10-04T05:39:04.139Z,445.9
2022-10-04T05:41:04.409Z,492.7
2022-10-04T05:43:08.263Z,572.5
2022-10-04T05:45:04.458Z,665.1
2022-10-04T05:47:07.678Z,699.2
2022-10-04T05:49:04.316Z,772.8
2022-10-04T05:51:04.009Z,772.8
2022-10-04T05:53:08.185Z,812.4
2022-10-04T05:55:08.446Z,897.8
2022-10-04T05:57:04.382Z,943.9
2022-10-04T05:59:04.687Z,1096.6
2022-10-04T06:01:04.123Z,1212
2022-10-04T06:03:04.353Z,1408.1
2022-10-04T06:05:04.817Z,1556.2
2022-10-04T06:07:04.606Z,1808
2022-10-04T06:09:08.120Z,1998.2
2022-10-04T06:11:08.087Z,2208.3
2022-10-04T06:15:04.160Z,2440.6
2022-10-04T06:17:04.912Z,2565.7
2022-10-04T06:21:11.366Z,2835.6
2022-10-04T06:23:04.071Z,2981
2022-10-04T06:25:07.278Z,3133.8
2022-10-04T06:31:05.202Z,3294.5
2022-10-04T06:33:04.702Z,3294.5
2022-10-04T06:35:11.317Z,3294.5
2022-10-04T06:37:11.789Z,3294.5
2022-10-04T06:39:04.636Z,3294.5
2022-10-04T06:41:04.959Z,3463.4
2022-10-04T06:43:05.037Z,3463.4
2022-10-04T06:45:04.971Z,3641
2022-10-04T06:47:07.979Z,3827.6
2022-10-04T06:49:07.413Z,3827.6
2022-10-04T06:51:04.062Z,3827.6
2022-10-04T06:53:04.931Z,3827.6
2022-10-04T06:55:04.492Z,3827.6
2022-10-04T06:57:04.710Z,3827.6
2022-10-04T06:59:04.729Z,3827.6
2022-10-04T07:01:11.383Z,3827.6
2022-10-04T07:03:04.914Z,4023.9
2022-10-04T07:05:08.335Z,4447.1
2022-10-04T07:07:04.400Z,5431.7
2022-10-04T07:09:04.086Z,7332
2022-10-04T07:11:04.334Z,8955.3
2022-10-04T07:13:07.996Z,8518.5
2022-10-04T07:15:04.825Z,8518.5
2022-10-04T07:17:04.145Z,8103.1
2022-10-04T07:19:08.091Z,7707.9
2022-10-04T07:21:04.964Z,7707.9
2022-10-04T07:23:04.390Z,7707.9
2022-10-04T07:25:11.214Z,8103.1
2022-10-04T07:27:03.955Z,6634.2
2022-10-04T07:29:08.140Z,6634.2
2022-10-04T07:31:04.858Z,6634.2
2022-10-04T07:33:04.526Z,6974.4
2022-10-04T07:35:07.711Z,7332
2022-10-04T07:37:04.681Z,7332
2022-10-04T07:39:08.108Z,7707.9
2022-10-04T07:41:04.140Z,8955.3
2022-10-04T07:43:08.281Z,9897.1
2022-10-04T07:45:04.514Z,8955.3
2022-10-04T07:47:05.072Z,7707.9
2022-10-04T07:49:04.067Z,7332
2022-10-04T07:51:04.877Z,7332
2022-10-04T07:53:08.635Z,7332
2022-10-04T07:55:04.871Z,7707.9
2022-10-04T07:57:04.041Z,8103.1
2022-10-04T07:59:08.202Z,8103.1
2022-10-04T08:01:04.342Z,6974.4
2022-10-04T08:03:04.347Z,6310.7
2022-10-04T08:05:04.931Z,6310.7
2022-10-04T08:07:11.299Z,6002.9
2022-10-04T08:09:07.881Z,6002.9
2022-10-04T08:11:04.819Z,6002.9
2022-10-04T08:13:05.219Z,6310.7
2022-10-04T08:15:04.739Z,6002.9
2022-10-04T08:17:05.077Z,6310.7
2022-10-04T08:19:05.889Z,6310.7
2022-10-04T08:21:04.776Z,6634.2
2022-10-04T08:23:04.649Z,7332
2022-10-04T08:25:04.754Z,8103.1
2022-10-04T08:29:04.741Z,6974.4
2022-10-04T08:31:04.133Z,6974.4
2022-10-04T08:37:02.036Z,5710.1
2022-10-04T08:37:14.928Z,4914.8
2022-10-04T08:41:44.611Z,6002.9
2022-10-04T08:44:22.697Z,5710.1
2022-10-04T08:47:02.159Z,6310.7
2022-10-04T08:49:10.602Z,6634.2
2022-10-04T08:53:53.612Z,6974.4
2022-10-04T08:59:26.001Z,7707.9
2022-10-04T09:01:18.760Z,8518.5
2022-10-04T09:03:53.511Z,9414.4
2022-10-04T09:06:48.240Z,9414.4
2022-10-04T09:14:04.768Z,10938
2022-10-04T09:17:49.984Z,14764.8
2022-10-04T09:23:05.534Z,17154.2
2022-10-04T09:25:53.452Z,14764.8
2022-10-04T09:29:52.829Z,12708.2
2022-10-04T09:33:36.624Z,10938
2022-10-04T09:37:20.296Z,8518.5
2022-10-04T09:39:29.280Z,8955.3
2022-10-04T09:49:50.276Z,8518.5
2022-10-04T09:56:12.369Z,14044.7
2022-10-04T10:00:55.684Z,17154.2
2022-10-04T10:02:53.025Z,24343
2022-10-04T10:05:51.536Z,54176.4
2022-10-04T10:10:29.657Z,20952.2
2022-10-04T10:13:55.327Z,12088.4
2022-10-04T10:23:41.996Z,12088.4
2022-10-04T10:28:01.191Z,12088.4
2022-10-04T10:38:47.202Z,44355.9
2022-10-04T10:40:43.769Z,44355.9
2022-10-04T10:42:43.893Z,36315.5
2022-10-04T10:44:53.702Z,51534.2
2022-10-04T10:46:50.161Z,38177.4
2022-10-04T10:48:43.628Z,42192.6
2022-10-04T10:50:54.306Z,42192.6
2022-10-04T10:52:50.077Z,54176.4
2022-10-04T10:54:43.660Z,59874.1
2022-10-04T10:56:47.549Z,66171.2
2022-10-04T10:58:44.229Z,54176.4
2022-10-04T11:00:50.279Z,38177.4
2022-10-04T11:02:49.663Z,36315.5
2022-10-04T11:04:47.054Z,51534.2
2022-10-04T11:06:50.379Z,54176.4
2022-10-04T11:08:43.955Z,73130.4
2022-10-04T11:10:51.795Z,62944
2022-10-04T11:12:50.098Z,73130.4
2022-10-04T11:14:43.759Z,69563.8
2022-10-04T11:16:47.589Z,76879.9
2022-10-04T11:18:43.761Z,73130.4
2022-10-04T11:20:50.224Z,69563.8
2022-10-04T11:22:44.154Z,73130.4
2022-10-04T11:24:47.322Z,73130.4
2022-10-04T11:26:44.082Z,62944
2022-10-04T11:28:43.801Z,56954
2022-10-04T11:30:53.800Z,56954
2022-10-04T11:32:44.146Z,62944
2022-10-04T11:34:43.873Z,62944
2022-10-04T11:36:47.496Z,69563.8
2022-10-04T11:38:50.019Z,59874.1
2022-10-04T11:40:44.170Z,59874.1
2022-10-04T11:42:47.338Z,59874.1
2022-10-04T11:44:43.947Z,66171.2
2022-10-04T11:46:47.750Z,69563.8
2022-10-04T11:48:44.340Z,69563.8
2022-10-04T11:50:47.367Z,69563.8
2022-10-04T11:52:44.161Z,66171.2
2022-10-04T11:54:44.347Z,56954
2022-10-04T11:56:47.873Z,56954
2022-10-04T11:58:44.287Z,62944
2022-10-04T12:00:54.039Z,62944
2022-10-04T12:02:44.239Z,66171.2
2022-10-04T12:04:54.566Z,62944
2022-10-04T12:06:44.096Z,56954
2022-10-04T12:08:47.136Z,56954
2022-10-04T12:10:43.996Z,49020.8
2022-10-04T12:12:47.081Z,54176.4
2022-10-04T12:14:50.245Z,54176.4
2022-10-04T12:16:44.633Z,49020.8
2022-10-04T12:18:48.211Z,54176.4
2022-10-04T12:20:44.287Z,66171.2
2022-10-04T12:22:47.510Z,62944
2022-10-04T12:24:44.249Z,66171.2
2022-10-04T12:27:00.286Z,62944
2022-10-04T12:28:44.143Z,56954
2022-10-04T12:30:44.224Z,66171.2
2022-10-04T12:32:54.351Z,59874.1
2022-10-04T12:34:44.130Z,73130.4
2022-10-04T12:36:48.059Z,69563.8
2022-10-04T12:38:43.849Z,62944
2022-10-04T12:40:47.511Z,69563.8
2022-10-04T12:42:51.090Z,69563.8
2022-10-04T12:44:43.911Z,66171.2
2022-10-04T12:46:50.620Z,59874.1
2022-10-04T12:48:50.267Z,59874.1
2022-10-04T12:50:50.584Z,62944
2022-10-04T12:52:44.280Z,62944
2022-10-04T12:54:50.546Z,59874.1
2022-10-04T12:56:50.500Z,62944
2022-10-04T12:58:50.671Z,66171.2
2022-10-04T13:00:43.927Z,66171.2
2022-10-04T13:02:47.321Z,66171.2
2022-10-04T13:04:43.945Z,62944
2022-10-04T13:06:53.978Z,62944
2022-10-04T13:08:54.232Z,69563.8
2022-10-04T13:10:44.027Z,69563.8
2022-10-04T13:12:47.496Z,69563.8
2022-10-04T13:14:50.007Z,66171.2
2022-10-04T13:18:54.185Z,62944
2022-10-04T13:20:44.066Z,66171.2
2022-10-04T13:22:57.208Z,66171.2
2022-10-04T13:24:43.802Z,66171.2
2022-10-04T13:26:47.463Z,62944
2022-10-04T13:28:44.150Z,62944
2022-10-04T13:30:49.287Z,62944
2022-10-04T13:32:43.883Z,62944
2022-10-04T13:34:54.149Z,54176.4
2022-10-04T13:36:50.395Z,59874.1
2022-10-04T13:38:50.418Z,59874.1
2022-10-04T13:40:44.202Z,54176.4
2022-10-04T13:42:54.055Z,54176.4
2022-10-04T13:44:43.875Z,44355.9
2022-10-04T13:46:50.381Z,56954
2022-10-04T13:48:43.902Z,40134.8
2022-10-04T13:50:47.109Z,46630
2022-10-04T13:52:44.023Z,18958.4
2022-10-04T13:54:57.074Z,32859.6
2022-10-04T13:56:43.970Z,46630
2022-10-04T13:58:47.258Z,38177.4
2022-10-04T14:00:44.171Z,40134.8
2022-10-04T14:02:44.149Z,20952.2
2022-10-04T14:04:47.244Z,26903.2
2022-10-04T14:06:53.955Z,25591.1
2022-10-04T14:08:50.374Z,29732.6
2022-10-04T14:10:44.199Z,10404.6
2022-10-04T14:12:47.268Z,5166.8
2022-10-04T14:14:44.176Z,8955.3
2022-10-04T14:16:49.689Z,4675.1
2022-10-04T14:18:44.114Z,9897.1
2022-10-04T14:20:54.006Z,4447.1
2022-10-04T14:22:50.354Z,4230.2
2022-10-04T14:24:53.586Z,4447.1
2022-10-04T14:26:44.108Z,5166.8
2022-10-04T14:28:43.907Z,4230.2
2022-10-04T14:30:43.900Z,4023.9
2022-10-04T14:32:54.108Z,4230.2
2022-10-04T14:34:44.091Z,4023.9
2022-10-04T14:36:47.212Z,16317.6
2022-10-04T14:38:44.010Z,4023.9
2022-10-04T14:40:48.600Z,4023.9
2022-10-04T14:42:44.075Z,4023.9
2022-10-04T14:44:57.298Z,4023.9
2022-10-04T14:46:43.845Z,4230.2
2022-10-04T14:48:44.400Z,4230.2
2022-10-04T14:50:47.228Z,4023.9
2022-10-04T14:52:44.196Z,4023.9
2022-10-04T14:54:44.251Z,4023.9
2022-10-04T14:56:44.590Z,3827.6
2022-10-04T14:58:50.574Z,3827.6
2022-10-04T15:00:44.698Z,3641
2022-10-04T15:02:44.768Z,3641
2022-10-04T15:04:44.310Z,3463.4
2022-10-04T15:06:47.695Z,3463.4
2022-10-04T15:08:44.185Z,3463.4
2022-10-04T15:10:45.712Z,3463.4
2022-10-04T15:14:47.101Z,3133.8
2022-10-04T15:16:44.415Z,3133.8
2022-10-04T15:18:44.010Z,2981
2022-10-04T15:20:47.464Z,2981
2022-10-04T15:22:44.231Z,2981
2022-10-04T15:24:47.313Z,2835.6
2022-10-04T15:26:44.314Z,2697.3
2022-10-04T15:28:44.236Z,2697.3
2022-10-04T15:30:51.958Z,2565.7
2022-10-04T15:32:47.411Z,2440.6
2022-10-04T15:34:44.080Z,2321.6
2022-10-04T15:36:50.180Z,2208.3
2022-10-04T15:38:44.058Z,2100.6
2022-10-04T15:40:44.294Z,1998.2
2022-10-04T15:42:43.969Z,1900.7
2022-10-04T15:44:51.919Z,1719.9
2022-10-04T15:46:44.386Z,1636
2022-10-04T15:48:45.986Z,1556.2
2022-10-04T15:50:47.398Z,1408.1
2022-10-04T15:52:44.224Z,1408.1
2022-10-04T15:54:43.997Z,1339.4
2022-10-04T15:56:48.146Z,1274.1
2022-10-04T15:58:50.720Z,1274.1
2022-10-04T16:00:44.054Z,1212
2022-10-04T16:02:50.538Z,1212
2022-10-04T16:04:44.307Z,1152.9
2022-10-04T16:08:54.331Z,1096.6
2022-10-04T16:10:47.429Z,1043.1
2022-10-04T16:12:44.459Z,992.3
2022-10-04T16:14:44.080Z,943.9
2022-10-04T16:16:52.325Z,897.8
2022-10-04T16:18:43.921Z,854.1
2022-10-04T16:20:44.041Z,1043.1
2022-10-04T16:24:47.309Z,1096.6
2022-10-04T16:26:50.644Z,735.1
2022-10-04T16:28:44.050Z,699.2
2022-10-04T16:30:45.705Z,544.6
2022-10-04T16:32:44.107Z,492.7
2022-10-04T16:34:43.988Z,445.9
2022-10-04T16:36:44.411Z,403.4
2022-10-04T16:38:47.586Z,365
2022-10-04T16:40:44.356Z,330.3
2022-10-04T16:42:47.360Z,284.3
2022-10-04T16:44:44.153Z,244.7
2022-10-04T16:46:44.495Z,210.6
2022-10-04T16:48:43.928Z,172.4
2022-10-04T16:50:44.193Z,141.2
2022-10-04T16:52:48.612Z,115.6
2022-10-04T16:56:54.144Z,90
2022-10-04T16:56:57.485Z,70.1
2022-10-04T16:58:58.697Z,51.9
2022-10-04T17:01:01.846Z,38.5
2022-10-04T17:02:58.674Z,28.5
2022-10-04T17:04:59.926Z,20.1
2022-10-04T17:06:57.461Z,13.5
2022-10-04T17:09:04.273Z,9
2022-10-04T17:11:00.842Z,6
2022-10-04T17:12:57.305Z,3.9
2022-10-04T17:16:57.291Z,1.6
2022-10-04T17:18:57.359Z,1.2
2022-10-04T17:20:58.636Z,0.7
2022-10-04T17:23:00.968Z,0.5
2022-10-04T17:24:57.549Z,0.4
2022-10-04T17:28:57.385Z,0.2
2022-10-04T17:30:57.577Z,0.2
2022-10-04T17:33:05.133Z,0.1
2022-10-04T17:34:57.268Z,0.1
2022-10-04T17:36:58.656Z,0.1
2022-10-04T17:38:57.323Z,0
2022-10-04T17:40:58.944Z,0
2022-10-04T17:43:00.485Z,0
2022-10-04T17:44:57.294Z,0
2022-10-04T17:46:57.450Z,0
2022-10-04T17:49:07.763Z,0
2022-10-04T17:51:00.753Z,0
2022-10-04T17:52:57.353Z,0
2022-10-04T17:55:01.019Z,0
2022-10-04T17:56:57.360Z,0
2022-10-04T17:58:58.735Z,0
2022-10-04T18:00:57.281Z,0
2022-10-04T18:02:57.376Z,0
2022-10-04T18:05:05.935Z,0
2022-10-04T18:07:00.755Z,0
2022-10-04T18:08:57.311Z,0
2022-10-04T18:12:57.221Z,0
2022-10-04T18:14:57.850Z,0
2022-10-04T18:16:59.317Z,0
2022-10-04T18:18:57.246Z,0
2022-10-04T18:20:57.289Z,0
2022-10-04T18:22:57.696Z,0
2022-10-04T18:25:04.130Z,0
2022-10-04T18:27:00.853Z,0
2022-10-04T18:28:57.386Z,0
2022-10-04T18:30:57.346Z,0
2022-10-04T18:32:57.271Z,0
2022-10-04T18:34:57.383Z,0
2022-10-04T18:37:03.811Z,0
2022-10-04T18:39:00.732Z,0
2022-10-04T18:40:57.693Z,0
2022-10-04T18:42:58.732Z,0
2022-10-04T18:45:00.692Z,0
2022-10-04T18:46:57.351Z,0
2022-10-04T18:48:57.418Z,0
2022-10-04T18:50:57.356Z,0
2022-10-04T18:54:57.601Z,0
2022-10-04T18:56:57.311Z,0
2022-10-04T18:59:01.868Z,0
2022-10-04T19:00:57.263Z,0
2022-10-04T19:02:57.623Z,0
2022-10-04T19:04:57.347Z,0
2022-10-04T19:06:57.353Z,0
2022-10-04T19:09:01.041Z,0
2022-10-04T19:10:57.365Z,0
2022-10-04T19:12:57.716Z,0
2022-10-04T19:15:00.836Z,0
2022-10-04T19:16:57.658Z,0
2022-10-04T19:20:57.243Z,0
2022-10-04T19:23:04.607Z,0
2022-10-04T19:24:57.653Z,0
2022-10-04T19:26:57.762Z,0
2022-10-04T19:28:57.384Z,0
2022-10-04T19:31:02.743Z,0
2022-10-04T19:32:57.407Z,0
2022-10-04T19:37:01.877Z,0
2022-10-04T19:39:03.998Z,0
2022-10-04T19:40:57.712Z,0
2022-10-04T19:42:57.369Z,0
2022-10-04T19:45:02.602Z,0
2022-10-04T19:46:57.781Z,0
2022-10-04T19:48:57.631Z,0
2022-10-04T19:50:57.415Z,0
2022-10-04T19:52:57.401Z,0
2022-10-04T19:55:03.932Z,0
2022-10-04T19:56:57.451Z,0
2022-10-04T19:59:01.504Z,0
2022-10-04T20:00:57.683Z,0
2022-10-04T20:02:57.350Z,0
2022-10-04T20:04:57.530Z,0
2022-10-04T20:06:59.044Z,0
2022-10-04T20:09:02.882Z,1
2022-10-04T20:10:57.314Z,1
2022-10-04T20:12:57.446Z,1
2022-10-04T20:15:04.250Z,0
2022-10-04T20:16:57.626Z,1
2022-10-04T20:18:57.448Z,1
2022-10-04T20:20:57.788Z,1
2022-10-04T20:22:57.728Z,1
2022-10-04T20:25:00.770Z,1
2022-10-04T20:27:01.074Z,1
2022-10-04T20:29:00.618Z,0
2022-10-04T20:30:57.423Z,0
2022-10-04T20:32:57.561Z,0
2022-10-04T20:34:59.352Z,0
2022-10-04T20:37:03.874Z,0
2022-10-04T20:39:02.248Z,0
2022-10-04T20:40:57.282Z,0
2022-10-04T20:43:06.390Z,0
2022-10-04T20:44:58.767Z,0
2022-10-04T20:47:00.849Z,0
2022-10-04T20:48:57.440Z,0
2022-10-04T20:50:57.282Z,0
2022-10-04T20:53:01.317Z,1
2022-10-04T20:54:57.360Z,1
2022-10-04T20:56:59.125Z,1
2022-10-04T20:58:57.379Z,1
2022-10-04T21:01:00.170Z,1
2022-10-04T21:02:57.341Z,1
2022-10-04T21:05:01.023Z,1
2022-10-04T21:07:01.139Z,1
2022-10-04T21:08:59.067Z,1
2022-10-04T21:10:58.802Z,1
2022-10-04T21:13:02.281Z,1
2022-10-04T21:14:57.295Z,1
2022-10-04T21:17:02.811Z,1
2022-10-04T21:20:57.346Z,1
2022-10-04T21:24:57.541Z,1
2022-10-04T21:26:57.632Z,1
2022-10-04T21:29:04.242Z,1
2022-10-04T21:31:00.630Z,1
2022-10-04T21:32:57.422Z,1
2022-10-04T21:36:59.041Z,1
2022-10-04T21:38:57.347Z,1
2022-10-04T21:41:00.410Z,1
2022-10-04T21:43:01.167Z,1
2022-10-04T21:44:57.446Z,1
2022-10-04T21:46:57.711Z,1
2022-10-04T21:48:57.810Z,1
2022-10-04T21:50:57.307Z,1
2022-10-04T21:52:57.287Z,1
2022-10-04T21:54:57.847Z,1
2022-10-04T21:57:01.044Z,1
2022-10-04T21:59:00.731Z,1
2022-10-04T22:00:57.436Z,1
2022-10-04T22:02:57.263Z,1
2022-10-04T22:04:57.676Z,1
2022-10-04T22:06:57.393Z,1
2022-10-04T22:09:01.470Z,1
2022-10-04T22:10:57.889Z,1
2022-10-04T22:12:57.422Z,1
2022-10-04T22:15:01.092Z,1
2022-10-04T22:16:57.476Z,1
2022-10-04T22:18:57.611Z,1
2022-10-04T22:20:57.478Z,1
2022-10-04T22:24:57.374Z,1
2022-10-04T22:27:00.258Z,1
2022-10-04T22:28:57.712Z,1
2022-10-04T22:31:01.033Z,1
2022-10-04T22:32:57.702Z,1
2022-10-04T22:35:01.265Z,1
2022-10-04T22:37:00.699Z,1
2022-10-04T22:38:57.652Z,1
2022-10-04T22:40:57.529Z,1
2022-10-04T22:42:57.345Z,1
2022-10-04T22:44:57.452Z,1
2022-10-04T22:46:57.434Z,1
2022-10-04T22:48:57.370Z,1
2022-10-04T22:50:58.977Z,1
2022-10-04T22:52:59.488Z,1
2022-10-04T22:55:01.988Z,1
2022-10-04T22:56:57.802Z,1
2022-10-04T22:58:57.601Z,1
2022-10-04T23:01:06.085Z,1
2022-10-04T23:03:04.232Z,1
2022-10-04T23:05:05.610Z,1
2022-10-04T23:07:04.197Z,1
2022-10-04T23:09:01.208Z,1
2022-10-04T23:10:57.757Z,1
2022-10-04T23:12:57.578Z,1
2022-10-04T23:14:58.781Z,1
2022-10-04T23:17:00.855Z,1
2022-10-04T23:19:01.172Z,1
2022-10-04T23:21:00.452Z,1
2022-10-04T23:22:59.653Z,1
2022-10-04T23:25:04.118Z,1
2022-10-04T23:27:00.409Z,1
2022-10-04T23:29:04.256Z,1
2022-10-04T23:30:59.368Z,1
2022-10-04T23:33:00.593Z,1
2022-10-04T23:35:03.836Z,1
2022-10-04T23:37:00.364Z,1
2022-10-04T23:39:00.227Z,1
2022-10-04T23:41:07.722Z,1
2022-10-04T23:42:59.641Z,1
2022-10-04T23:45:00.832Z,1
2022-10-04T23:46:59.892Z,1
2022-10-04T23:49:04.223Z,1
2022-10-04T23:51:07.876Z,1
2022-10-04T23:53:00.961Z,1
2022-10-04T23:55:00.874Z,1
2022-10-04T23:57:03.641Z,1
2022-10-04T23:59:00.655Z,1
